createdAt,value
2023-02-23T00:01:23.629Z,2.38
2023-02-23T00:03:50.973Z,2.17
2023-02-23T00:06:19.174Z,4.40
2023-02-23T00:08:47.895Z,2.70
2023-02-23T00:11:16.457Z,2.55
2023-02-23T00:13:49.980Z,2.47
2023-02-23T00:16:23.780Z,2.58
2023-02-23T00:18:56.206Z,2.05
2023-02-23T00:21:25.691Z,2.28
2023-02-23T00:23:55.214Z,3.33
2023-02-23T00:26:24.204Z,1.65
2023-02-23T00:28:51.287Z,3.17
2023-02-23T00:31:18.515Z,2.58
2023-02-23T00:33:45.519Z,4.65
2023-02-23T00:36:14.787Z,1.48
2023-02-23T00:38:42.050Z,3.17
2023-02-23T00:41:14.129Z,5.57
2023-02-23T00:43:47.604Z,2.63
2023-02-23T00:46:19.333Z,1.90
2023-02-23T00:48:46.331Z,5.85
2023-02-23T00:51:13.635Z,1.98
2023-02-23T00:53:41.220Z,3.25
2023-02-23T00:56:09.967Z,5.82
2023-02-23T00:58:36.755Z,2.50
2023-02-23T01:01:07.405Z,2.40
2023-02-23T01:03:34.555Z,2.67
2023-02-23T01:06:05.438Z,2.15
2023-02-23T01:08:36.648Z,3.42
2023-02-23T01:11:15.090Z,2.67
2023-02-23T01:13:44.126Z,3.17
2023-02-23T01:16:14.869Z,2.72
2023-02-23T01:18:44.507Z,3.60
2023-02-23T01:21:23.401Z,2.03
2023-02-23T01:23:51.325Z,2.70
2023-02-23T01:26:35.841Z,3.00
2023-02-23T01:29:09.141Z,3.72
2023-02-23T01:31:38.094Z,2.53
2023-02-23T01:34:06.277Z,3.97
2023-02-23T01:36:39.025Z,4.63
2023-02-23T01:39:08.570Z,3.85
2023-02-23T01:41:36.691Z,3.75
2023-02-23T01:44:05.357Z,3.08
2023-02-23T01:46:39.176Z,2.80
2023-02-23T01:49:15.859Z,3.38
2023-02-23T01:51:55.631Z,3.70
2023-02-23T01:54:26.468Z,3.63
2023-02-23T01:56:58.936Z,2.45
2023-02-23T01:59:49.416Z,6.40
2023-02-23T02:02:23.205Z,5.25
2023-02-23T02:04:52.290Z,6.30
2023-02-23T02:07:25.930Z,6.88
2023-02-23T02:10:11.714Z,3.35
2023-02-23T02:12:51.902Z,2.70
2023-02-23T02:15:19.983Z,5.03
2023-02-23T02:18:12.471Z,3.08
2023-02-23T02:20:52.524Z,3.83
2023-02-23T02:23:42.134Z,4.28
2023-02-23T02:26:27.019Z,4.28
2023-02-23T02:29:15.552Z,4.50
2023-02-23T02:32:24.382Z,3.40
2023-02-23T02:35:09.932Z,6.03
2023-02-23T02:38:01.766Z,4.30
2023-02-23T02:40:37.032Z,4.93
2023-02-23T02:43:16.727Z,4.28
2023-02-23T02:45:51.525Z,3.67
2023-02-23T02:48:31.312Z,4.82
2023-02-23T02:51:09.342Z,6.05
2023-02-23T02:53:45.601Z,4.90
2023-02-23T02:56:19.828Z,4.13
2023-02-23T02:58:50.132Z,4.90
2023-02-23T03:01:37.063Z,5.60
2023-02-23T03:04:43.246Z,4.50
2023-02-23T03:07:44.813Z,4.60
2023-02-23T03:10:58.119Z,4.97
2023-02-23T03:14:06.519Z,5.28
2023-02-23T03:17:13.210Z,8.45
2023-02-23T03:20:13.422Z,3.63
2023-02-23T03:23:24.275Z,4.45
2023-02-23T03:26:28.017Z,4.20
2023-02-23T03:29:35.550Z,6.75
2023-02-23T03:32:37.131Z,6.65
2023-02-23T03:35:37.640Z,4.30
2023-02-23T03:38:27.242Z,5.05
2023-02-23T03:41:14.902Z,8.88
2023-02-23T03:44:15.314Z,6.57
2023-02-23T03:47:02.869Z,3.97
2023-02-23T03:49:52.653Z,4.93
2023-02-23T03:52:44.720Z,5.82
2023-02-23T03:55:36.432Z,5.50
2023-02-23T03:58:28.070Z,5.60
2023-02-23T04:04:02.494Z,4.32
2023-02-23T04:06:54.490Z,6.55
2023-02-23T04:09:40.017Z,3.13
2023-02-23T04:12:39.583Z,3.97
2023-02-23T04:15:30.242Z,4.47
2023-02-23T04:17:57.117Z,2.97
2023-02-23T04:20:25.871Z,4.75
2023-02-23T04:22:53.044Z,6.50
2023-02-23T04:25:23.041Z,5.25
2023-02-23T04:27:50.830Z,5.88
2023-02-23T04:30:18.513Z,7.10
2023-02-23T04:32:46.186Z,4.93
2023-02-23T04:35:13.649Z,5.70
2023-02-23T04:37:40.471Z,4.32
2023-02-23T04:40:08.327Z,6.85
2023-02-23T04:42:35.037Z,7.78
2023-02-23T04:45:02.111Z,6.75
2023-02-23T04:47:29.278Z,7.15
2023-02-23T04:49:55.995Z,4.82
2023-02-23T04:52:22.810Z,9.80
2023-02-23T04:54:49.472Z,8.05
2023-02-23T04:57:16.146Z,6.88
2023-02-23T04:59:43.353Z,6.18
2023-02-23T05:02:10.081Z,6.00
2023-02-23T05:04:36.782Z,4.22
2023-02-23T05:07:04.609Z,7.13
2023-02-23T05:09:32.069Z,8.77
2023-02-23T05:11:58.862Z,5.65
2023-02-23T05:14:25.631Z,8.55
2023-02-23T05:16:52.707Z,5.90
2023-02-23T05:19:19.631Z,8.02
2023-02-23T05:21:46.546Z,7.32
2023-02-23T05:24:13.376Z,6.40
2023-02-23T05:26:40.054Z,3.85
2023-02-23T05:29:06.712Z,6.45
2023-02-23T05:31:33.974Z,6.90
2023-02-23T05:34:01.044Z,5.82
2023-02-23T05:36:28.452Z,6.35
2023-02-23T05:38:55.164Z,5.05
2023-02-23T05:41:23.655Z,7.90
2023-02-23T05:43:52.674Z,4.80
2023-02-23T05:46:26.699Z,6.43
2023-02-23T05:48:59.152Z,8.38
2023-02-23T05:51:26.932Z,6.82
2023-02-23T05:53:53.789Z,8.50
2023-02-23T05:56:21.170Z,6.75
2023-02-23T05:58:49.401Z,11.05
2023-02-23T06:01:17.905Z,4.80
2023-02-23T06:03:45.719Z,6.63
2023-02-23T06:06:13.002Z,8.77
2023-02-23T06:08:40.360Z,6.38
2023-02-23T06:11:07.645Z,8.00
2023-02-23T06:13:34.959Z,9.98
2023-02-23T06:16:01.706Z,12.00
2023-02-23T06:18:29.660Z,7.93
2023-02-23T06:21:00.331Z,6.20
2023-02-23T06:23:28.293Z,7.22
2023-02-23T06:25:55.193Z,12.93
2023-02-23T06:28:22.352Z,11.35
2023-02-23T06:30:52.302Z,8.48
2023-02-23T06:33:19.409Z,11.43
2023-02-23T06:35:46.472Z,9.65
2023-02-23T06:38:13.643Z,10.45
2023-02-23T06:40:40.309Z,13.73
2023-02-23T06:43:07.247Z,11.25
2023-02-23T06:45:33.965Z,15.45
2023-02-23T06:48:00.945Z,11.15
2023-02-23T06:50:29.288Z,12.10
2023-02-23T06:52:57.545Z,14.73
2023-02-23T06:55:24.607Z,17.77
2023-02-23T06:57:53.443Z,13.70
2023-02-23T07:00:20.616Z,16.33
2023-02-23T07:02:47.294Z,14.57
2023-02-23T07:05:14.089Z,18.17
2023-02-23T07:07:41.025Z,17.77
2023-02-23T07:10:08.333Z,13.70
2023-02-23T07:12:35.022Z,20.30
2023-02-23T07:15:01.694Z,13.48
2023-02-23T07:17:28.363Z,15.35
2023-02-23T07:19:55.423Z,19.10
2023-02-23T07:22:22.594Z,15.88
2023-02-23T07:24:49.324Z,18.80
2023-02-23T07:27:16.003Z,17.63
2023-02-23T07:29:42.686Z,15.27
2023-02-23T07:32:09.483Z,20.27
2023-02-23T07:34:37.161Z,15.82
2023-02-23T07:37:03.847Z,18.05
2023-02-23T07:39:31.149Z,19.77
2023-02-23T07:41:58.342Z,18.40
2023-02-23T07:44:25.070Z,17.98
2023-02-23T07:46:52.872Z,16.20
2023-02-23T07:49:19.687Z,17.08
2023-02-23T07:51:46.682Z,17.98
2023-02-23T07:54:13.707Z,19.42
2023-02-23T07:56:40.398Z,14.02
2023-02-23T07:59:07.072Z,17.80
2023-02-23T08:01:34.077Z,12.98
2023-02-23T08:04:00.927Z,14.20
2023-02-23T08:06:27.743Z,13.13
2023-02-23T08:08:54.464Z,13.93
2023-02-23T08:11:21.639Z,16.70
2023-02-23T08:13:48.341Z,16.42
2023-02-23T08:16:16.467Z,11.82
2023-02-23T08:18:43.537Z,10.65
2023-02-23T08:21:10.363Z,11.85
2023-02-23T08:23:37.071Z,12.15
2023-02-23T08:26:03.866Z,12.95
2023-02-23T08:28:31.311Z,9.20
2023-02-23T08:30:59.546Z,13.73
2023-02-23T08:33:26.490Z,12.68
2023-02-23T08:35:53.686Z,12.75
2023-02-23T08:38:21.744Z,12.13
2023-02-23T08:40:48.428Z,7.70
2023-02-23T08:43:16.332Z,11.73
2023-02-23T08:45:43.054Z,12.20
2023-02-23T08:48:09.729Z,10.20
2023-02-23T08:50:36.386Z,12.93
2023-02-23T08:53:04.116Z,8.32
2023-02-23T08:55:31.221Z,11.80
2023-02-23T08:57:58.626Z,14.13
2023-02-23T09:00:25.439Z,9.52
2023-02-23T09:02:52.154Z,10.05
2023-02-23T09:05:19.022Z,10.65
2023-02-23T09:07:46.866Z,7.78
2023-02-23T09:10:16.913Z,11.50
2023-02-23T09:12:43.590Z,7.65
2023-02-23T09:15:10.867Z,10.82
2023-02-23T09:17:37.929Z,10.93
2023-02-23T09:20:06.182Z,15.43
2023-02-23T09:22:36.755Z,9.27
2023-02-23T09:25:04.913Z,8.95
2023-02-23T09:27:31.694Z,11.98
2023-02-23T09:29:58.432Z,8.40
2023-02-23T09:32:25.216Z,8.88
2023-02-23T09:34:52.547Z,9.02
2023-02-23T09:37:19.313Z,11.32
2023-02-23T09:39:48.916Z,10.50
2023-02-23T09:42:18.473Z,10.95
2023-02-23T09:44:57.644Z,10.60
2023-02-23T09:47:30.891Z,9.70
2023-02-23T09:50:03.067Z,11.88
2023-02-23T09:52:40.808Z,12.07
2023-02-23T09:55:12.589Z,12.15
2023-02-23T10:00:24.193Z,12.02
2023-02-23T10:03:13.086Z,16.17
2023-02-23T10:05:46.071Z,14.57
2023-02-23T10:08:54.692Z,15.23
2023-02-23T10:11:35.446Z,14.60
2023-02-23T10:14:19.278Z,13.48
2023-02-23T10:16:52.333Z,16.83
2023-02-23T10:19:28.618Z,26.15
2023-02-23T10:21:59.824Z,21.33
2023-02-23T10:24:36.576Z,18.45
2023-02-23T10:27:15.321Z,12.45
2023-02-23T10:29:48.495Z,16.70
2023-02-23T10:32:34.929Z,18.58
2023-02-23T10:35:06.388Z,22.25
2023-02-23T10:39:59.758Z,18.55
2023-02-23T10:42:31.992Z,22.77
2023-02-23T10:44:59.392Z,17.80
2023-02-23T10:47:30.000Z,20.40
2023-02-23T10:49:58.496Z,18.67
2023-02-23T10:52:41.539Z,19.30
2023-02-23T10:55:27.678Z,15.15
2023-02-23T10:58:10.828Z,20.70
2023-02-23T11:00:40.936Z,16.30
2023-02-23T11:03:42.797Z,19.92
2023-02-23T11:06:30.567Z,18.85
2023-02-23T11:08:57.746Z,20.05
2023-02-23T11:11:29.093Z,18.55
2023-02-23T11:13:57.174Z,19.63
2023-02-23T11:16:23.927Z,19.73
2023-02-23T11:19:00.265Z,19.20
2023-02-23T11:21:29.613Z,19.88
2023-02-23T11:23:59.093Z,21.15
2023-02-23T11:26:38.090Z,21.65
2023-02-23T11:29:29.455Z,19.35
2023-02-23T11:31:58.600Z,20.65
2023-02-23T11:34:40.692Z,24.25
2023-02-23T11:37:27.251Z,17.77
2023-02-23T11:39:59.794Z,21.10
2023-02-23T11:42:30.167Z,19.45
2023-02-23T11:45:12.213Z,19.30
2023-02-23T11:47:40.887Z,23.67
2023-02-23T11:50:20.008Z,18.23
2023-02-23T11:52:47.727Z,20.48
2023-02-23T11:55:19.954Z,24.67
2023-02-23T11:57:49.605Z,20.00
2023-02-23T12:00:27.803Z,19.67
2023-02-23T12:03:00.878Z,22.58
2023-02-23T12:05:30.364Z,19.02
2023-02-23T12:08:31.352Z,21.08
2023-02-23T12:11:02.291Z,18.63
2023-02-23T12:13:36.507Z,15.25
2023-02-23T12:16:18.786Z,13.95
2023-02-23T12:18:57.489Z,11.63
2023-02-23T12:21:36.189Z,15.68
2023-02-23T12:24:25.989Z,11.10
2023-02-23T12:27:00.350Z,12.82
2023-02-23T12:29:41.973Z,9.10
2023-02-23T12:35:06.240Z,11.75
2023-02-23T12:37:40.626Z,14.20
2023-02-23T12:40:16.767Z,10.93
2023-02-23T12:43:01.907Z,10.30
2023-02-23T12:45:36.989Z,12.50
2023-02-23T12:48:07.701Z,9.98
2023-02-23T12:50:40.194Z,11.00
2023-02-23T12:53:25.950Z,12.45
2023-02-23T12:56:32.849Z,11.65
2023-02-23T12:59:32.968Z,9.02
2023-02-23T13:02:16.450Z,8.57
2023-02-23T13:04:43.214Z,11.48
2023-02-23T13:07:34.410Z,9.25
2023-02-23T13:10:15.843Z,9.00
2023-02-23T13:13:00.653Z,10.75
2023-02-23T13:15:31.400Z,8.88
2023-02-23T13:18:13.659Z,10.82
2023-02-23T13:20:49.207Z,11.75
2023-02-23T13:23:34.437Z,12.05
2023-02-23T13:26:16.210Z,7.78
2023-02-23T13:28:58.700Z,8.23
2023-02-23T13:31:31.136Z,9.35
2023-02-23T13:33:59.834Z,12.60
2023-02-23T13:36:29.599Z,8.80
2023-02-23T13:39:28.975Z,8.25
2023-02-23T13:42:33.385Z,10.48
2023-02-23T13:45:08.955Z,12.07
2023-02-23T13:48:05.383Z,8.30
2023-02-23T13:50:47.516Z,10.85
2023-02-23T13:53:36.048Z,10.50
2023-02-23T13:56:16.272Z,11.23
2023-02-23T13:58:51.280Z,9.80
2023-02-23T14:01:22.816Z,10.32
2023-02-23T14:03:56.851Z,18.13
2023-02-23T14:06:26.400Z,14.23
2023-02-23T14:09:00.746Z,12.50
2023-02-23T14:11:41.456Z,14.13
2023-02-23T14:14:14.189Z,13.70
2023-02-23T14:16:40.996Z,12.65
2023-02-23T14:19:11.848Z,16.38
2023-02-23T14:21:56.487Z,17.83
2023-02-23T14:24:27.754Z,13.35
2023-02-23T14:27:39.807Z,19.45
2023-02-23T14:30:10.837Z,18.92
2023-02-23T14:32:44.076Z,16.20
2023-02-23T14:35:32.381Z,16.73
2023-02-23T14:38:05.108Z,15.45
2023-02-23T14:40:35.014Z,20.00
2023-02-23T14:43:03.620Z,13.63
2023-02-23T14:45:38.859Z,16.35
2023-02-23T14:48:19.456Z,16.00
2023-02-23T14:50:46.218Z,14.27
2023-02-23T14:53:21.472Z,20.15
2023-02-23T14:55:49.930Z,19.90
2023-02-23T14:58:29.306Z,19.13
2023-02-23T15:00:56.199Z,21.60
2023-02-23T15:03:23.060Z,18.85
2023-02-23T15:06:02.439Z,25.17
2023-02-23T15:08:30.741Z,21.05
2023-02-23T15:11:15.743Z,21.13
2023-02-23T15:13:51.157Z,20.30
2023-02-23T15:16:35.294Z,22.45
2023-02-23T15:19:04.701Z,32.65
2023-02-23T15:21:31.438Z,20.95
2023-02-23T15:24:06.326Z,24.20
2023-02-23T15:26:37.979Z,23.42
2023-02-23T15:29:10.567Z,27.45
2023-02-23T15:31:41.010Z,30.15
2023-02-23T15:34:11.125Z,26.40
2023-02-23T15:36:41.314Z,30.23
2023-02-23T15:39:14.648Z,26.55
2023-02-23T15:41:44.085Z,22.85
2023-02-23T15:44:32.209Z,23.50
2023-02-23T15:47:10.665Z,19.10
2023-02-23T15:49:40.737Z,15.60
2023-02-23T15:52:10.105Z,17.33
2023-02-23T15:55:01.550Z,17.92
2023-02-23T15:57:35.048Z,9.40
2023-02-23T16:00:09.955Z,16.48
2023-02-23T16:02:37.649Z,12.35
2023-02-23T16:05:23.997Z,10.73
2023-02-23T16:08:23.110Z,10.98
2023-02-23T16:10:55.065Z,9.43
2023-02-23T16:13:22.567Z,9.63
2023-02-23T16:15:50.562Z,12.25
2023-02-23T16:18:42.133Z,8.52
2023-02-23T16:21:21.639Z,12.23
2023-02-23T16:23:52.639Z,8.95
2023-02-23T16:26:47.327Z,6.25
2023-02-23T16:29:19.110Z,5.43
2023-02-23T16:31:55.184Z,5.10
2023-02-23T16:34:34.241Z,3.33
2023-02-23T16:37:04.872Z,2.78
2023-02-23T16:39:34.251Z,1.60
2023-02-23T16:42:01.125Z,1.85
2023-02-23T16:44:37.797Z,2.28
2023-02-23T16:47:11.922Z,3.05
2023-02-23T16:49:38.876Z,1.83
2023-02-23T16:52:17.728Z,1.58
2023-02-23T16:54:47.492Z,2.95
2023-02-23T16:57:22.547Z,4.05
2023-02-23T16:59:51.700Z,2.47
2023-02-23T17:02:19.970Z,2.97
2023-02-23T17:04:49.196Z,3.42
2023-02-23T17:07:17.523Z,3.97
2023-02-23T17:09:44.311Z,3.35
2023-02-23T17:12:13.889Z,2.92
2023-02-23T17:14:47.717Z,1.75
2023-02-23T17:17:17.283Z,2.42
2023-02-23T17:19:45.624Z,1.95
2023-02-23T17:22:13.307Z,2.10
2023-02-23T17:24:42.073Z,1.85
2023-02-23T17:27:09.462Z,3.30
2023-02-23T17:29:36.728Z,5.45
2023-02-23T17:32:04.420Z,3.92
2023-02-23T17:34:31.722Z,1.83
2023-02-23T17:36:59.114Z,2.90
2023-02-23T17:39:28.354Z,3.55
2023-02-23T17:41:56.152Z,3.15
2023-02-23T17:44:26.577Z,4.47
2023-02-23T17:46:53.684Z,3.83
2023-02-23T17:49:21.015Z,5.28
2023-02-23T17:51:48.081Z,2.85
2023-02-23T17:54:16.367Z,3.08
2023-02-23T17:56:43.627Z,2.35
2023-02-23T17:59:10.451Z,4.28
2023-02-23T18:01:37.910Z,2.13
2023-02-23T18:04:04.897Z,5.47
2023-02-23T18:06:31.825Z,4.93
2023-02-23T18:08:58.805Z,1.80
2023-02-23T18:11:25.974Z,2.22
2023-02-23T18:13:53.298Z,2.10
2023-02-23T18:16:20.492Z,1.98
2023-02-23T18:18:48.977Z,3.58
2023-02-23T18:21:19.831Z,1.58
2023-02-23T18:23:47.509Z,2.63
2023-02-23T18:26:19.969Z,4.60
2023-02-23T18:28:47.425Z,2.78
2023-02-23T18:31:28.158Z,7.03
2023-02-23T18:33:56.769Z,8.68
2023-02-23T18:36:28.116Z,5.13
2023-02-23T18:41:31.254Z,7.30
2023-02-23T18:43:59.514Z,16.35
2023-02-23T18:46:26.441Z,7.90
2023-02-23T18:48:56.821Z,10.38
2023-02-23T18:51:25.805Z,17.02
2023-02-23T18:53:56.937Z,11.25
2023-02-23T18:56:28.307Z,7.68
2023-02-23T18:58:59.400Z,6.38
2023-02-23T19:01:29.436Z,6.03
2023-02-23T19:03:59.529Z,5.78
2023-02-23T19:06:26.855Z,6.22
2023-02-23T19:08:56.573Z,6.75
2023-02-23T19:11:34.597Z,6.80
2023-02-23T19:14:04.458Z,7.43
2023-02-23T19:16:33.372Z,5.78
2023-02-23T19:19:05.692Z,3.92
2023-02-23T19:21:33.248Z,9.73
2023-02-23T19:24:06.579Z,4.15
2023-02-23T19:26:38.957Z,5.18
2023-02-23T19:29:06.198Z,6.90
2023-02-23T19:31:34.225Z,6.70
2023-02-23T19:34:09.169Z,6.10
2023-02-23T19:36:37.310Z,4.80
2023-02-23T19:39:11.018Z,5.32
2023-02-23T19:41:39.773Z,4.78
2023-02-23T19:44:07.158Z,5.43
2023-02-23T19:46:38.091Z,5.00
2023-02-23T19:49:06.575Z,5.50
2023-02-23T19:51:33.713Z,4.78
2023-02-23T19:54:04.601Z,3.92
2023-02-23T19:56:35.769Z,3.95
2023-02-23T19:59:04.463Z,3.97
2023-02-23T20:01:34.850Z,4.18
2023-02-23T20:04:06.504Z,5.85
2023-02-23T20:06:47.673Z,3.63
2023-02-23T20:09:22.242Z,4.93
2023-02-23T20:11:55.070Z,5.10
2023-02-23T20:14:23.738Z,4.88
2023-02-23T20:16:54.942Z,6.63
2023-02-23T20:19:21.934Z,6.22
2023-02-23T20:21:52.571Z,5.18
2023-02-23T20:24:19.785Z,4.53
2023-02-23T20:26:52.580Z,6.25
2023-02-23T20:29:22.640Z,6.93
2023-02-23T20:31:51.981Z,4.70
2023-02-23T20:34:24.519Z,8.52
2023-02-23T20:36:55.771Z,3.83
2023-02-23T20:39:30.159Z,4.53
2023-02-23T20:42:01.233Z,4.07
2023-02-23T20:44:33.321Z,3.05
2023-02-23T20:47:09.874Z,2.80
2023-02-23T20:49:37.634Z,2.63
2023-02-23T20:52:08.291Z,2.33
2023-02-23T20:54:40.319Z,2.33
2023-02-23T20:57:09.932Z,1.77
2023-02-23T20:59:36.950Z,2.00
2023-02-23T21:02:13.699Z,1.17
2023-02-23T21:04:44.478Z,1.00
2023-02-23T21:07:13.579Z,1.40
2023-02-23T21:09:40.852Z,2.20
2023-02-23T21:12:11.396Z,2.45
2023-02-23T21:14:38.289Z,0.77
2023-02-23T21:17:05.521Z,0.93
2023-02-23T21:19:32.428Z,0.95
2023-02-23T21:22:00.397Z,3.63
2023-02-23T21:24:27.217Z,1.55
2023-02-23T21:26:53.942Z,1.45
2023-02-23T21:29:23.947Z,2.42
2023-02-23T21:31:51.072Z,2.70
2023-02-23T21:34:20.962Z,2.03
2023-02-23T21:36:47.964Z,4.22
2023-02-23T21:39:14.755Z,4.38
2023-02-23T21:41:41.618Z,1.25
2023-02-23T21:44:08.713Z,1.67
2023-02-23T21:46:35.789Z,1.00
2023-02-23T21:49:09.724Z,1.95
2023-02-23T21:51:37.035Z,3.25
2023-02-23T21:54:21.988Z,1.80
2023-02-23T21:56:48.649Z,3.72
2023-02-23T21:59:15.394Z,2.83
2023-02-23T22:01:43.474Z,2.17
2023-02-23T22:04:14.088Z,3.00
2023-02-23T22:06:44.089Z,2.50
2023-02-23T22:09:12.633Z,3.03
2023-02-23T22:11:44.423Z,3.80
2023-02-23T22:14:12.743Z,3.00
2023-02-23T22:16:43.582Z,2.10
2023-02-23T22:19:11.753Z,2.17
2023-02-23T22:21:41.684Z,2.88
2023-02-23T22:24:10.233Z,2.40
2023-02-23T22:26:39.342Z,2.20
2023-02-23T22:29:07.134Z,5.40
2023-02-23T22:31:34.260Z,4.32
2023-02-23T22:34:01.141Z,3.13
2023-02-23T22:36:28.173Z,3.50
2023-02-23T22:38:58.426Z,5.65
2023-02-23T22:41:29.486Z,2.65
2023-02-23T22:43:57.715Z,3.63
2023-02-23T22:46:25.234Z,2.50
2023-02-23T22:48:51.971Z,3.30
2023-02-23T22:51:19.737Z,2.97
2023-02-23T22:53:46.631Z,3.13
2023-02-23T22:56:13.966Z,4.38
2023-02-23T22:58:42.193Z,4.70
2023-02-23T23:01:11.660Z,2.92
2023-02-23T23:03:48.903Z,2.22
2023-02-23T23:06:23.834Z,4.70
2023-02-23T23:08:53.600Z,2.50
2023-02-23T23:11:23.584Z,2.33
2023-02-23T23:14:02.276Z,2.83
2023-02-23T23:16:32.578Z,2.08
2023-02-23T23:19:05.042Z,3.78
2023-02-23T23:21:33.734Z,3.10
2023-02-23T23:24:06.007Z,2.13
2023-02-23T23:26:35.689Z,2.13
2023-02-23T23:29:07.512Z,2.50
2023-02-23T23:31:36.034Z,2.30
2023-02-23T23:34:10.054Z,2.10
2023-02-23T23:36:45.807Z,1.80
2023-02-23T23:39:13.985Z,2.05
2023-02-23T23:41:42.951Z,1.70
2023-02-23T23:44:10.721Z,2.00
2023-02-23T23:46:39.756Z,2.17
2023-02-23T23:49:11.116Z,2.08
2023-02-23T23:51:44.845Z,3.45
2023-02-23T23:54:18.579Z,1.80
2023-02-23T23:56:46.071Z,2.65
2023-02-23T23:59:20.474Z,2.50
